Time;durP1;ratioP1;P1;durP2;ratioP2;P2;SDS_P1;SDS_P2;PMS_P1;PMS_P2;Temp;Humidity;BMP_temperature;BMP_pressure;BME280_temperature;BME280_humidity;BME280_pressure;Samples;Min_cycle;Max_cycle;Signal;HPM_P1;HPM_P2
2021/11/13 00:02:25;;;;;;;14.60;8.37;;;4.70;83.40;;;;;;5045699;28;20207;-74
2021/11/13 00:04:51;;;;;;;18.47;7.83;;;4.70;83.40;;;;;;5044550;28;20180;-73
2021/11/13 00:07:18;;;;;;;13.80;8.60;;;4.60;83.30;;;;;;5046631;28;20184;-74
2021/11/13 00:09:44;;;;;;;15.00;9.63;;;4.60;83.60;;;;;;5044032;28;20187;-74
2021/11/13 00:12:10;;;;;;;22.97;8.90;;;4.60;83.60;;;;;;5043921;28;20215;-74
2021/11/13 00:14:36;;;;;;;14.03;8.93;;;4.60;83.80;;;;;;5044290;28;20203;-74
2021/11/13 00:17:02;;;;;;;16.30;8.80;;;4.50;84.00;;;;;;5039979;28;20183;-74
2021/11/13 00:19:30;;;;;;;13.93;8.47;;;4.50;84.30;;;;;;5046489;28;20172;-73
2021/11/13 00:21:55;;;;;;;16.87;9.97;;;4.50;84.20;;;;;;5040493;28;20191;-74
2021/11/13 00:24:21;;;;;;;14.50;8.60;;;4.40;84.40;;;;;;5045040;28;20171;-72
2021/11/13 00:26:47;;;;;;;8.47;7.20;;;4.40;84.10;;;;;;5046299;28;20184;-75
2021/11/13 00:29:13;;;;;;;14.80;8.33;;;4.40;84.10;;;;;;5045313;28;20187;-72
2021/11/13 00:31:38;;;;;;;15.90;9.57;;;4.30;84.20;;;;;;5044243;28;20208;-72
2021/11/13 00:34:04;;;;;;;18.97;10.37;;;4.30;84.30;;;;;;5043939;28;20244;-74
2021/11/13 00:36:30;;;;;;;22.23;11.63;;;4.30;84.00;;;;;;5044473;28;20245;-74
2021/11/13 00:38:56;;;;;;;19.83;10.33;;;4.30;84.40;;;;;;5044376;28;20183;-72
2021/11/13 00:41:21;;;;;;;21.40;9.33;;;4.30;84.80;;;;;;5043025;28;20267;-73
2021/11/13 00:43:48;;;;;;;15.50;9.07;;;4.20;84.40;;;;;;5043638;28;20260;-74
2021/11/13 00:46:13;;;;;;;26.07;11.67;;;4.20;84.20;;;;;;5041760;28;20210;-74
2021/11/13 00:48:39;;;;;;;19.80;12.00;;;4.20;84.40;;;;;;5047044;28;20305;-74
2021/11/13 00:51:05;;;;;;;25.00;12.03;;;4.20;84.40;;;;;;5045125;28;20713;-74
2021/11/13 00:53:32;;;;;;;21.27;11.53;;;4.20;84.50;;;;;;5044654;28;20231;-74
2021/11/13 00:55:59;;;;;;;21.93;12.40;;;4.10;84.60;;;;;;5045860;28;20207;-74
2021/11/13 00:58:24;;;;;;;22.00;11.77;;;4.10;84.50;;;;;;5045513;28;20241;-74
2021/11/13 01:00:50;;;;;;;24.60;10.80;;;4.10;84.60;;;;;;5043945;28;20180;-74
2021/11/13 01:03:16;;;;;;;15.00;9.33;;;4.10;84.70;;;;;;5046623;28;20192;-74
2021/11/13 01:05:42;;;;;;;13.17;7.80;;;4.10;84.80;;;;;;5044073;28;20190;-74
2021/11/13 01:08:08;;;;;;;10.97;6.83;;;4.00;85.00;;;;;;5045620;28;20176;-74
2021/11/13 01:10:34;;;;;;;13.77;7.13;;;4.00;84.80;;;;;;5043547;28;20194;-74
2021/11/13 01:13:00;;;;;;;8.53;6.67;;;4.00;84.50;;;;;;5044754;28;20211;-74
2021/11/13 01:15:25;;;;;;;8.37;6.60;;;4.00;84.30;;;;;;5046465;28;20720;-74
2021/11/13 01:17:52;;;;;;;11.37;6.83;;;4.00;84.10;;;;;;5045871;28;20202;-73
2021/11/13 01:20:18;;;;;;;15.27;7.93;;;4.00;84.10;;;;;;5048086;28;20603;-73
2021/11/13 01:22:46;;;;;;;11.97;7.43;;;4.00;84.10;;;;;;5043816;28;20191;-74
2021/11/13 01:25:12;;;;;;;9.20;6.97;;;4.00;84.10;;;;;;5045873;28;20182;-74
2021/11/13 01:27:38;;;;;;;11.50;5.97;;;3.90;84.10;;;;;;5045758;28;20247;-74
2021/11/13 01:30:06;;;;;;;8.03;5.67;;;3.90;84.20;;;;;;5047691;28;20187;-74
2021/11/13 01:32:31;;;;;;;4.77;4.37;;;3.90;84.10;;;;;;5044065;28;20211;-74
2021/11/13 01:34:57;;;;;;;6.37;4.57;;;3.90;84.20;;;;;;5046280;28;20207;-74
2021/11/13 01:37:23;;;;;;;8.93;5.00;;;3.90;84.20;;;;;;5046983;28;20573;-74
2021/11/13 01:39:48;;;;;;;7.40;4.60;;;3.90;84.20;;;;;;5044119;28;20180;-74
2021/11/13 01:42:14;;;;;;;4.47;4.10;;;3.90;84.20;;;;;;5043211;28;20184;-74
2021/11/13 01:44:41;;;;;;;6.93;4.90;;;3.90;84.00;;;;;;5043097;28;20180;-74
2021/11/13 01:47:07;;;;;;;8.87;4.93;;;3.80;84.30;;;;;;5044352;28;20203;-74
2021/11/13 01:49:37;;;;;;;9.13;3.77;;;3.80;84.30;;;;;;5043367;28;20211;-74
2021/11/13 01:52:10;;;;;;;6.97;4.50;;;3.80;84.40;;;;;;5043455;28;20261;-73
2021/11/13 01:54:39;;;;;;;7.70;4.43;;;3.70;84.40;;;;;;5042458;28;20177;-73
2021/11/13 01:57:11;;;;;;;8.73;4.43;;;3.70;84.60;;;;;;5044598;28;20179;-73
2021/11/13 01:59:40;;;;;;;7.03;4.93;;;3.70;84.70;;;;;;5043738;28;20192;-73
2021/11/13 02:02:08;;;;;;;5.83;4.30;;;3.70;84.70;;;;;;5040966;28;20195;-74
2021/11/13 02:04:34;;;;;;;6.80;4.80;;;3.70;84.60;;;;;;5043061;28;20187;-73
2021/11/13 02:07:00;;;;;;;9.10;4.60;;;3.70;84.60;;;;;;5046167;28;20209;-73
2021/11/13 02:09:26;;;;;;;3.87;3.53;;;3.70;84.60;;;;;;5045954;28;20217;-73
2021/11/13 02:11:53;;;;;;;4.20;3.80;;;3.70;84.70;;;;;;5042682;28;20207;-73
2021/11/13 02:14:19;;;;;;;6.57;4.23;;;3.60;84.60;;;;;;5040978;28;20203;-73
2021/11/13 02:16:45;;;;;;;4.17;3.73;;;3.60;84.80;;;;;;5045775;28;20298;-73
2021/11/13 02:19:11;;;;;;;5.43;4.43;;;3.60;84.90;;;;;;5049974;28;20248;-73
2021/11/13 02:21:36;;;;;;;6.37;4.40;;;3.60;84.80;;;;;;5048586;28;20952;-73
2021/11/13 02:24:03;;;;;;;4.73;4.27;;;3.60;84.80;;;;;;5047761;28;20187;-73
2021/11/13 02:26:29;;;;;;;4.30;4.00;;;3.60;84.60;;;;;;5049911;28;20182;-73
2021/11/13 02:28:55;;;;;;;5.37;4.50;;;3.50;85.10;;;;;;5047557;28;20241;-73
2021/11/13 02:31:33;;;;;;;5.10;4.07;;;3.50;85.20;;;;;;5046128;28;20179;-73
2021/11/13 02:33:58;;;;;;;6.70;4.30;;;3.50;84.80;;;;;;5046648;28;20258;-74
2021/11/13 02:36:24;;;;;;;9.50;4.27;;;3.50;85.10;;;;;;5048708;28;20266;-73
2021/11/13 02:38:54;;;;;;;11.20;5.10;;;3.50;85.30;;;;;;5048680;28;20261;-74
2021/11/13 02:41:22;;;;;;;8.87;5.43;;;3.40;85.20;;;;;;5047815;28;20517;-73
2021/11/13 02:43:48;;;;;;;10.43;6.03;;;3.40;85.40;;;;;;5048918;28;20312;-73
2021/11/13 02:46:14;;;;;;;14.47;7.27;;;3.40;85.60;;;;;;5047162;28;20261;-73
2021/11/13 02:48:42;;;;;;;14.67;8.17;;;3.40;85.80;;;;;;5047579;28;20203;-73
2021/11/13 02:51:09;;;;;;;9.67;6.93;;;3.40;86.00;;;;;;5048560;28;20225;-73
2021/11/13 02:53:36;;;;;;;14.00;7.17;;;3.40;86.00;;;;;;5046475;28;20215;-73
2021/11/13 02:56:06;;;;;;;23.50;7.83;;;3.30;85.90;;;;;;5047268;28;20184;-73
2021/11/13 02:58:33;;;;;;;15.60;7.53;;;3.30;85.80;;;;;;5046418;28;20409;-73
2021/11/13 03:01:22;;;;;;;9.13;7.33;;;3.30;85.80;;;;;;5044050;28;20187;-73
2021/11/13 03:03:53;;;;;;;13.83;7.87;;;3.20;85.90;;;;;;5045560;28;20179;-73
2021/11/13 03:06:19;;;;;;;16.63;9.03;;;3.20;85.90;;;;;;5050415;28;20179;-74
2021/11/13 03:08:46;;;;;;;13.83;8.27;;;3.20;85.80;;;;;;5047514;28;20188;-73
2021/11/13 03:11:14;;;;;;;18.90;8.80;;;3.20;85.70;;;;;;5044922;28;20188;-74
2021/11/13 03:13:43;;;;;;;12.53;9.23;;;3.20;85.70;;;;;;5048127;28;20355;-73
2021/11/13 03:16:09;;;;;;;14.07;7.90;;;3.20;85.60;;;;;;5046307;28;20180;-73
2021/11/13 03:18:36;;;;;;;19.83;10.50;;;3.10;85.70;;;;;;5045609;28;20252;-73
2021/11/13 03:21:05;;;;;;;18.60;9.53;;;3.10;85.60;;;;;;5045794;28;20192;-73
2021/11/13 03:23:33;;;;;;;23.10;10.93;;;3.10;85.50;;;;;;5042934;28;20187;-73
2021/11/13 03:26:06;;;;;;;21.17;9.07;;;3.10;85.50;;;;;;5045675;28;20187;-73
2021/11/13 03:28:39;;;;;;;18.10;9.50;;;3.10;85.40;;;;;;5045286;28;20191;-73
2021/11/13 03:31:06;;;;;;;14.60;8.60;;;3.10;85.50;;;;;;5043738;28;20215;-73
2021/11/13 03:33:35;;;;;;;14.13;9.03;;;3.10;85.50;;;;;;5045057;28;20215;-74
2021/11/13 03:36:02;;;;;;;11.53;7.50;;;3.00;85.40;;;;;;5062003;28;20195;-73
2021/11/13 03:38:27;;;;;;;14.83;8.20;;;3.00;85.10;;;;;;5046117;28;20311;-74
2021/11/13 03:40:54;;;;;;;17.33;8.77;;;3.00;85.30;;;;;;5044960;28;20183;-73
2021/11/13 03:43:21;;;;;;;16.87;9.83;;;3.00;85.30;;;;;;5047065;28;20187;-73
2021/11/13 03:45:50;;;;;;;16.97;9.27;;;3.00;85.30;;;;;;5046368;28;20204;-73
2021/11/13 03:48:17;;;;;;;17.73;7.83;;;3.00;85.50;;;;;;5045488;28;20175;-73
2021/11/13 03:50:43;;;;;;;14.37;9.37;;;3.00;85.80;;;;;;5045717;28;20330;-73
2021/11/13 03:53:09;;;;;;;11.70;8.27;;;3.00;85.70;;;;;;5045314;28;20219;-73
2021/11/13 03:55:35;;;;;;;9.73;6.33;;;2.90;86.10;;;;;;5048607;28;20199;-73
2021/11/13 03:58:02;;;;;;;17.30;6.43;;;2.90;86.10;;;;;;5047388;28;20211;-73
2021/11/13 04:00:28;;;;;;;15.07;7.50;;;2.90;85.90;;;;;;5047218;28;20179;-73
2021/11/13 04:02:54;;;;;;;6.97;5.47;;;2.80;86.00;;;;;;5048983;28;20730;-73
2021/11/13 04:05:21;;;;;;;6.17;4.97;;;2.80;86.50;;;;;;5046723;28;20187;-73
2021/11/13 04:07:47;;;;;;;11.03;6.33;;;2.80;86.60;;;;;;5047981;28;20179;-73
2021/11/13 04:10:14;;;;;;;8.23;5.10;;;2.80;86.50;;;;;;5046916;28;20191;-73
2021/11/13 04:12:40;;;;;;;12.63;6.10;;;2.70;86.60;;;;;;5048185;28;20295;-73
2021/11/13 04:15:07;;;;;;;7.33;5.50;;;2.70;86.60;;;;;;5046376;28;20613;-73
2021/11/13 04:17:33;;;;;;;7.83;5.27;;;2.70;86.60;;;;;;5046112;28;20278;-73
2021/11/13 04:19:59;;;;;;;8.37;5.43;;;2.70;86.80;;;;;;5043195;28;20191;-72
2021/11/13 04:22:25;;;;;;;9.33;5.40;;;2.70;86.70;;;;;;5047520;28;20226;-72
2021/11/13 04:24:51;;;;;;;5.90;4.80;;;2.70;86.70;;;;;;5047573;28;20187;-73
2021/11/13 04:27:16;;;;;;;11.13;5.43;;;2.70;86.70;;;;;;5046946;28;20728;-72
2021/11/13 04:29:43;;;;;;;6.83;6.17;;;2.70;87.10;;;;;;5043981;28;20270;-74
2021/11/13 04:32:09;;;;;;;11.03;5.87;;;2.60;87.10;;;;;;5046018;28;20211;-73
2021/11/13 04:37:19;;;;;;;6.23;5.73;;;2.60;87.10;;;;;;5045580;28;20802;-74
2021/11/13 04:39:47;;;;;;;6.60;4.80;;;2.60;86.90;;;;;;5045791;28;20197;-74
2021/11/13 04:42:15;;;;;;;5.93;4.13;;;2.60;86.90;;;;;;5045378;28;20192;-74
2021/11/13 04:44:42;;;;;;;9.37;4.60;;;2.60;86.70;;;;;;5043921;28;20334;-74
2021/11/13 04:47:09;;;;;;;5.33;4.60;;;2.60;86.80;;;;;;5046093;28;20214;-74
2021/11/13 04:49:35;;;;;;;7.37;3.67;;;2.60;86.90;;;;;;5044217;28;20218;-74
2021/11/13 04:52:03;;;;;;;6.47;4.17;;;2.50;86.70;;;;;;5046044;28;20207;-74
2021/11/13 04:54:30;;;;;;;7.20;4.87;;;2.50;86.70;;;;;;5045672;28;20184;-74
2021/11/13 04:56:56;;;;;;;7.23;6.50;;;2.50;86.90;;;;;;5046777;28;20613;-74
2021/11/13 04:59:21;;;;;;;8.30;6.10;;;2.50;86.80;;;;;;5045987;28;20270;-74
2021/11/13 05:01:48;;;;;;;7.50;5.33;;;2.50;86.90;;;;;;5046753;28;20192;-74
2021/11/13 05:04:13;;;;;;;13.30;7.17;;;2.50;87.10;;;;;;5044660;28;20180;-74
2021/11/13 05:06:39;;;;;;;14.83;8.17;;;2.50;87.10;;;;;;5046145;28;20191;-74
2021/11/13 05:09:05;;;;;;;14.67;7.87;;;2.50;87.10;;;;;;5046402;28;20185;-74
2021/11/13 05:11:31;;;;;;;12.10;7.53;;;2.50;87.20;;;;;;5046121;28;20195;-74
2021/11/13 05:13:56;;;;;;;17.17;8.30;;;2.50;87.30;;;;;;5045400;28;20587;-74
2021/11/13 05:16:22;;;;;;;15.00;9.13;;;2.40;87.50;;;;;;5045332;28;20187;-74
2021/11/13 05:18:48;;;;;;;18.57;8.20;;;2.50;87.50;;;;;;5045223;28;20727;-73
2021/11/13 05:21:14;;;;;;;9.00;5.93;;;2.40;87.50;;;;;;5072515;28;20188;-74
2021/11/13 05:23:40;;;;;;;17.43;8.40;;;2.40;87.40;;;;;;5044450;28;20192;-73
2021/11/13 05:26:06;;;;;;;10.60;7.73;;;2.40;87.50;;;;;;5046048;28;20740;-72
2021/11/13 05:28:33;;;;;;;14.27;7.33;;;2.40;87.50;;;;;;5045124;28;20188;-74
2021/11/13 05:30:59;;;;;;;9.03;6.90;;;2.40;87.80;;;;;;5045354;28;20681;-73
2021/11/13 05:33:25;;;;;;;11.97;7.80;;;2.40;87.80;;;;;;5045689;28;20338;-74
2021/11/13 05:35:51;;;;;;;16.27;7.30;;;2.40;87.80;;;;;;5046199;28;20270;-73
2021/11/13 05:38:18;;;;;;;8.73;6.93;;;2.40;87.80;;;;;;5046274;28;20199;-73
2021/11/13 05:40:44;;;;;;;13.17;8.90;;;2.40;87.90;;;;;;5045100;28;20188;-75
2021/11/13 05:43:10;;;;;;;11.50;7.63;;;2.50;87.90;;;;;;5045452;28;20183;-73
2021/11/13 05:45:36;;;;;;;14.77;9.23;;;2.50;88.00;;;;;;5044345;28;20233;-74
2021/11/13 05:48:04;;;;;;;15.37;8.67;;;2.50;88.00;;;;;;5045421;28;20190;-74
2021/11/13 05:50:30;;;;;;;14.20;8.27;;;2.50;88.00;;;;;;5044606;28;20187;-74
2021/11/13 05:52:56;;;;;;;14.43;7.93;;;2.60;88.00;;;;;;5046017;28;20219;-73
2021/11/13 05:55:24;;;;;;;12.60;7.40;;;2.60;88.00;;;;;;5045964;28;20184;-73
2021/11/13 05:57:51;;;;;;;14.80;7.83;;;2.60;88.00;;;;;;5046236;28;20175;-73
2021/11/13 06:00:19;;;;;;;10.23;7.23;;;2.60;87.90;;;;;;5040301;28;20202;-73
2021/11/13 06:02:45;;;;;;;10.00;7.27;;;2.70;87.90;;;;;;5042876;28;20199;-73
2021/11/13 06:05:12;;;;;;;13.10;8.00;;;2.70;87.90;;;;;;5043905;28;20591;-74
2021/11/13 06:07:38;;;;;;;9.93;6.00;;;2.80;87.70;;;;;;5044344;28;20206;-73
2021/11/13 06:10:06;;;;;;;18.43;7.93;;;2.80;87.70;;;;;;5045148;28;20206;-74
2021/11/13 06:12:31;;;;;;;14.67;8.27;;;2.80;87.70;;;;;;5043554;28;20282;-75
2021/11/13 06:14:57;;;;;;;12.77;8.13;;;2.90;87.90;;;;;;5040908;28;20189;-73
2021/11/13 06:17:23;;;;;;;10.67;6.93;;;2.90;87.90;;;;;;5045590;28;20184;-73
2021/11/13 06:19:49;;;;;;;22.13;8.43;;;3.00;87.90;;;;;;5046888;28;20183;-73
2021/11/13 06:22:15;;;;;;;10.67;8.27;;;3.10;87.80;;;;;;5044081;28;20712;-73
2021/11/13 06:24:40;;;;;;;18.00;9.50;;;3.20;87.60;;;;;;5045321;28;20234;-73
2021/11/13 06:27:07;;;;;;;18.67;9.97;;;3.40;87.70;;;;;;5044396;28;20696;-74
2021/11/13 06:29:32;;;;;;;28.73;11.07;;;3.60;87.50;;;;;;5046857;28;20186;-73
2021/11/13 06:31:58;;;;;;;20.47;11.83;;;3.90;87.40;;;;;;5044367;28;20208;-74
2021/11/13 06:34:24;;;;;;;17.37;10.63;;;4.20;87.70;;;;;;5043485;28;20250;-74
2021/11/13 06:36:50;;;;;;;21.33;12.17;;;4.70;87.50;;;;;;5044037;28;20180;-73
2021/11/13 06:39:16;;;;;;;19.90;12.23;;;5.30;86.80;;;;;;5044061;28;20194;-74
2021/11/13 06:41:41;;;;;;;19.70;12.03;;;6.00;85.70;;;;;;5044383;28;20206;-74
2021/11/13 06:44:07;;;;;;;26.13;12.70;;;6.70;84.40;;;;;;5044193;28;20210;-73
2021/11/13 06:46:33;;;;;;;24.80;13.67;;;7.40;83.60;;;;;;5042017;28;20242;-75
2021/11/13 06:48:59;;;;;;;27.73;13.50;;;8.20;82.10;;;;;;5043618;28;20567;-75
2021/11/13 06:51:24;;;;;;;32.00;15.07;;;8.90;78.90;;;;;;5042618;28;20198;-74
2021/11/13 06:53:51;;;;;;;30.30;16.37;;;9.50;77.00;;;;;;5040802;28;20927;-73
2021/11/13 06:56:17;;;;;;;29.13;16.57;;;10.10;75.20;;;;;;5044839;28;20180;-73
2021/11/13 06:58:42;;;;;;;32.57;16.17;;;10.60;74.20;;;;;;5043030;28;20192;-73
2021/11/13 07:01:08;;;;;;;30.80;16.80;;;11.10;71.90;;;;;;5044381;28;20176;-73
2021/11/13 07:03:34;;;;;;;25.00;15.77;;;11.60;71.90;;;;;;5047279;28;20929;-74
2021/11/13 07:05:59;;;;;;;28.23;15.87;;;12.00;70.00;;;;;;5045517;28;20186;-74
2021/11/13 07:08:25;;;;;;;34.45;16.35;;;12.50;69.50;;;;;;5046920;28;20635;-74
2021/11/13 07:10:53;;;;;;;29.75;16.48;;;12.80;67.60;;;;;;5047584;28;20187;-73
2021/11/13 07:13:24;;;;;;;28.75;15.30;;;13.00;66.30;;;;;;5044906;28;20208;-74
2021/11/13 07:15:50;;;;;;;28.50;15.27;;;13.50;65.70;;;;;;5046973;28;20599;-77
2021/11/13 07:18:16;;;;;;;26.80;15.60;;;13.90;65.60;;;;;;5048846;28;20222;-78
2021/11/13 07:20:42;;;;;;;25.98;14.88;;;14.40;64.70;;;;;;5047681;28;20203;-77
2021/11/13 07:23:08;;;;;;;25.67;14.85;;;15.00;62.80;;;;;;5047052;28;20184;-76
2021/11/13 07:25:34;;;;;;;20.17;13.73;;;15.50;63.30;;;;;;5047190;28;22231;-75
2021/11/13 07:28:05;;;;;;;25.23;15.50;;;15.90;59.90;;;;;;5047776;28;20292;-77
2021/11/13 07:30:39;;;;;;;23.08;13.88;;;16.30;59.80;;;;;;5046689;28;20175;-77
2021/11/13 07:33:10;;;;;;;25.25;13.70;;;16.30;57.60;;;;;;5046245;28;20214;-77
2021/11/13 07:35:37;;;;;;;23.17;14.73;;;16.40;56.30;;;;;;5048926;28;20203;-76
2021/11/13 07:38:04;;;;;;;22.13;13.75;;;16.60;57.10;;;;;;5048121;28;20180;-76
2021/11/13 07:40:30;;;;;;;24.75;15.32;;;16.90;57.80;;;;;;5045458;28;20291;-76
2021/11/13 07:42:56;;;;;;;20.30;14.27;;;17.30;57.10;;;;;;5045574;28;20195;-76
2021/11/13 07:45:22;;;;;;;24.30;14.32;;;17.30;55.50;;;;;;5045062;28;20184;-76
2021/11/13 07:47:48;;;;;;;24.17;14.27;;;17.50;56.20;;;;;;5047301;28;20188;-76
2021/11/13 07:50:16;;;;;;;16.48;12.52;;;17.80;55.60;;;;;;5046644;28;20195;-79
2021/11/13 07:52:42;;;;;;;20.45;13.20;;;18.20;55.40;;;;;;5047878;28;20215;-79
2021/11/13 07:55:09;;;;;;;21.95;13.18;;;18.70;54.90;;;;;;5049317;28;20187;-78
2021/11/13 07:57:35;;;;;;;20.67;12.45;;;19.10;53.60;;;;;;5046618;28;20183;-79
2021/11/13 08:00:02;;;;;;;26.75;13.07;;;19.20;52.90;;;;;;5048038;28;20184;-80
2021/11/13 08:02:28;;;;;;;15.45;10.80;;;19.30;53.30;;;;;;5044097;28;20183;-80
2021/11/13 08:04:54;;;;;;;20.85;11.95;;;19.40;52.50;;;;;;5043073;28;20183;-80
2021/11/13 08:07:20;;;;;;;18.08;12.90;;;19.60;52.50;;;;;;5041821;28;20176;-79
2021/11/13 08:09:46;;;;;;;18.95;14.27;;;19.70;52.80;;;;;;5047688;28;20183;-80
2021/11/13 08:12:12;;;;;;;21.23;13.93;;;19.70;52.50;;;;;;5044608;28;20725;-80
2021/11/13 08:14:37;;;;;;;21.77;14.88;;;19.70;52.50;;;;;;5044715;28;20250;-80
2021/11/13 08:17:03;;;;;;;19.95;13.52;;;19.90;53.20;;;;;;5045204;28;20194;-80
2021/11/13 08:19:29;;;;;;;26.20;15.45;;;20.10;52.00;;;;;;5045721;28;20180;-80
2021/11/13 08:21:55;;;;;;;26.73;14.85;;;20.30;52.80;;;;;;5044964;28;20186;-80
2021/11/13 08:24:21;;;;;;;21.15;14.75;;;20.50;51.40;;;;;;5045086;28;20259;-80
2021/11/13 08:26:47;;;;;;;24.08;15.30;;;20.70;50.70;;;;;;5046195;28;20176;-80
2021/11/13 08:29:14;;;;;;;21.17;15.15;;;20.90;51.40;;;;;;5043810;28;20709;-80
2021/11/13 08:31:40;;;;;;;25.42;16.08;;;21.40;50.70;;;;;;5047614;28;20250;-80
2021/11/13 08:34:06;;;;;;;28.10;15.38;;;21.80;50.30;;;;;;5044883;28;20234;-80
2021/11/13 08:36:32;;;;;;;23.13;16.65;;;22.20;49.70;;;;;;5045480;28;20188;-79
2021/11/13 08:38:58;;;;;;;24.55;15.10;;;22.60;49.20;;;;;;5044175;28;20183;-80
2021/11/13 08:41:24;;;;;;;20.55;15.48;;;22.70;47.90;;;;;;5045249;28;20747;-84
2021/11/13 08:43:50;;;;;;;23.48;15.05;;;22.90;48.40;;;;;;5044128;28;20187;-84
2021/11/13 08:46:16;;;;;;;24.08;15.45;;;23.20;48.50;;;;;;5041731;28;20677;-81
2021/11/13 08:48:43;;;;;;;21.60;15.75;;;23.90;47.20;;;;;;5042235;28;20183;-80
2021/11/13 08:51:08;;;;;;;30.58;15.25;;;23.90;47.20;;;;;;5042927;28;20179;-78
2021/11/13 08:53:34;;;;;;;22.70;15.90;;;24.00;46.80;;;;;;5041801;28;20219;-75
2021/11/13 08:56:00;;;;;;;21.40;15.75;;;23.90;46.80;;;;;;5041540;28;20210;-77
2021/11/13 08:58:26;;;;;;;19.17;14.05;;;23.80;47.70;;;;;;5041448;28;20652;-75
2021/11/13 09:00:58;;;;;;;23.35;16.30;;;23.80;47.50;;;;;;5040951;28;20180;-77
2021/11/13 09:03:30;;;;;;;22.55;15.95;;;24.00;47.10;;;;;;5074793;28;20586;-79
2021/11/13 09:05:57;;;;;;;21.35;15.35;;;24.30;46.30;;;;;;5042972;28;20180;-76
2021/11/13 09:08:23;;;;;;;18.98;13.93;;;24.60;46.70;;;;;;5040996;28;20202;-78
2021/11/13 09:10:50;;;;;;;22.10;14.38;;;24.80;46.70;;;;;;5041481;28;20211;-76
2021/11/13 09:13:19;;;;;;;21.40;14.80;;;24.80;46.80;;;;;;5044658;28;20314;-78
2021/11/13 09:15:45;;;;;;;19.55;13.35;;;25.10;46.90;;;;;;5041733;28;20196;-79
2021/11/13 09:18:11;;;;;;;21.10;14.13;;;25.10;43.60;;;;;;5042902;28;20187;-78
2021/11/13 09:20:39;;;;;;;21.00;14.57;;;24.60;44.60;;;;;;5041922;28;20184;-75
2021/11/13 09:23:06;;;;;;;17.48;13.07;;;24.30;46.80;;;;;;5043571;28;20183;-78
2021/11/13 09:25:32;;;;;;;16.15;12.48;;;24.40;47.30;;;;;;5038917;28;20217;-80
2021/11/13 09:27:59;;;;;;;15.93;12.63;;;24.70;46.10;;;;;;5038266;28;20666;-78
2021/11/13 09:30:28;;;;;;;19.63;13.60;;;25.10;46.80;;;;;;5042106;28;20194;-78
2021/11/13 09:32:55;;;;;;;16.30;12.68;;;25.70;45.90;;;;;;5042014;28;20242;-79
2021/11/13 09:35:21;;;;;;;17.23;12.60;;;26.10;45.80;;;;;;5041451;28;20331;-79
2021/11/13 09:37:47;;;;;;;15.13;12.07;;;26.60;45.00;;;;;;5042002;28;20577;-79
2021/11/13 09:40:17;;;;;;;19.98;13.45;;;27.10;44.90;;;;;;5043399;28;20176;-79
2021/11/13 09:42:54;;;;;;;19.50;13.57;;;27.50;44.40;;;;;;5041062;28;20645;-79
2021/11/13 09:45:21;;;;;;;19.58;13.57;;;27.90;42.80;;;;;;5039412;28;20281;-79
2021/11/13 09:47:53;;;;;;;23.08;14.75;;;28.20;42.90;;;;;;5040867;28;20188;-78
2021/11/13 09:50:21;;;;;;;22.23;15.25;;;28.20;41.70;;;;;;5043404;28;21545;-78
2021/11/13 09:52:47;;;;;;;19.65;14.35;;;27.90;42.50;;;;;;5042419;28;20227;-75
2021/11/13 09:55:15;;;;;;;19.45;14.02;;;27.80;42.80;;;;;;5045907;28;20186;-76
2021/11/13 09:57:41;;;;;;;22.10;13.82;;;27.90;43.70;;;;;;5042822;28;20172;-76
2021/11/13 10:00:09;;;;;;;20.50;14.27;;;28.00;44.00;;;;;;5045100;28;20257;-79
2021/11/13 10:02:35;;;;;;;18.30;12.98;;;28.10;41.80;;;;;;5042279;28;20188;-78
2021/11/13 10:05:02;;;;;;;14.07;12.20;;;27.90;42.00;;;;;;5042251;28;20206;-79
2021/11/13 10:07:30;;;;;;;15.40;11.52;;;27.80;41.50;;;;;;5040168;28;20270;-77
2021/11/13 10:09:55;;;;;;;14.57;12.52;;;27.40;43.70;;;;;;5044847;28;20696;-80
2021/11/13 10:12:39;;;;;;;16.35;13.25;;;27.40;43.50;;;;;;5044025;28;20211;-76
2021/11/13 10:15:26;;;;;;;17.67;12.50;;;27.40;41.40;;;;;;5043979;28;20242;-77
2021/11/13 10:18:12;;;;;;;19.33;14.85;;;27.40;41.00;;;;;;5045034;28;20199;-76
2021/11/13 10:20:42;;;;;;;22.08;14.73;;;27.20;42.60;;;;;;5044225;28;20226;-75
2021/11/13 10:23:10;;;;;;;17.60;13.82;;;27.30;43.50;;;;;;5042545;28;20201;-80
2021/11/13 10:25:36;;;;;;;18.50;14.32;;;27.30;42.80;;;;;;5045622;28;20179;-76
2021/11/13 10:28:07;;;;;;;20.23;14.70;;;27.20;41.40;;;;;;5044314;28;20183;-77
2021/11/13 10:30:33;;;;;;;22.48;14.25;;;27.30;42.80;;;;;;5043285;28;20187;-76
2021/11/13 10:32:59;;;;;;;19.05;15.35;;;27.40;41.80;;;;;;5043406;28;20251;-75
2021/11/13 10:35:47;;;;;;;22.48;15.68;;;27.60;42.10;;;;;;5043820;28;20280;-76
2021/11/13 10:38:17;;;;;;;16.50;14.65;;;27.50;40.60;;;;;;5045673;28;20176;-76
2021/11/13 10:40:55;;;;;;;18.38;13.27;;;27.80;43.30;;;;;;5048620;28;20176;-78
2021/11/13 10:43:36;;;;;;;17.67;13.02;;;28.00;42.50;;;;;;5046240;28;20183;-78
2021/11/13 10:46:09;;;;;;;16.08;13.77;;;28.30;42.10;;;;;;5042136;28;20732;-78
2021/11/13 10:48:42;;;;;;;20.27;15.68;;;28.50;40.40;;;;;;5046296;28;20183;-76
2021/11/13 10:51:21;;;;;;;18.83;13.88;;;28.50;41.90;;;;;;5045695;28;20187;-78
2021/11/13 10:53:48;;;;;;;21.77;15.05;;;28.30;41.40;;;;;;5044787;28;20319;-77
2021/11/13 10:56:17;;;;;;;16.92;14.60;;;28.10;40.70;;;;;;5046217;28;20410;-78
2021/11/13 10:58:49;;;;;;;20.92;15.05;;;27.90;42.70;;;;;;5046229;28;21427;-77
2021/11/13 11:01:25;;;;;;;21.40;14.20;;;28.00;41.50;;;;;;5045699;28;20574;-76
2021/11/13 11:03:53;;;;;;;20.02;15.43;;;27.90;41.80;;;;;;5044620;28;20183;-77
2021/11/13 11:06:26;;;;;;;19.15;14.48;;;27.80;42.30;;;;;;5049758;28;20678;-76
2021/11/13 11:08:53;;;;;;;20.30;14.30;;;27.80;42.40;;;;;;5045921;28;20183;-76
2021/11/13 11:11:36;;;;;;;19.45;13.02;;;27.70;41.70;;;;;;5049053;28;20176;-77
2021/11/13 11:14:05;;;;;;;16.55;12.98;;;27.70;39.80;;;;;;5047535;28;20576;-77
2021/11/13 11:16:37;;;;;;;18.83;12.68;;;27.90;41.40;;;;;;5048736;28;20222;-76
2021/11/13 11:19:26;;;;;;;14.45;11.98;;;28.00;40.60;;;;;;5044332;28;20256;-77
2021/11/13 11:22:06;;;;;;;17.95;13.10;;;28.00;37.90;;;;;;5045632;28;20719;-77
2021/11/13 11:24:32;;;;;;;15.10;12.68;;;27.90;41.30;;;;;;5046424;28;20866;-77
2021/11/13 11:27:04;;;;;;;13.93;12.05;;;28.20;41.20;;;;;;5044629;28;20255;-77
2021/11/13 11:29:33;;;;;;;12.90;11.20;;;28.30;40.30;;;;;;5046453;28;20587;-77
2021/11/13 11:32:03;;;;;;;15.02;11.48;;;28.40;41.60;;;;;;5048334;28;20200;-77
2021/11/13 11:34:37;;;;;;;12.32;10.00;;;28.60;41.20;;;;;;5079460;28;20199;-77
2021/11/13 11:37:11;;;;;;;11.75;10.55;;;28.50;41.00;;;;;;5043750;28;20548;-77
2021/11/13 11:39:37;;;;;;;14.02;10.73;;;27.90;40.60;;;;;;5047279;28;20188;-77
2021/11/13 11:42:04;;;;;;;13.38;10.48;;;27.60;41.80;;;;;;5045569;28;20753;-78
2021/11/13 11:44:30;;;;;;;13.02;10.32;;;27.70;41.50;;;;;;5048518;28;20740;-77
2021/11/13 11:46:58;;;;;;;13.48;11.00;;;27.80;41.60;;;;;;5044794;28;20182;-77
2021/11/13 11:49:25;;;;;;;17.58;11.07;;;27.90;41.20;;;;;;5046528;28;20172;-77
2021/11/13 11:51:51;;;;;;;18.80;11.48;;;28.00;41.20;;;;;;5045964;28;20218;-77
2021/11/13 11:54:17;;;;;;;12.80;10.82;;;28.10;41.40;;;;;;5045527;28;20210;-77
2021/11/13 11:56:44;;;;;;;13.40;11.23;;;28.30;41.90;;;;;;5044459;28;20226;-77
2021/11/13 11:59:10;;;;;;;16.38;11.82;;;28.30;41.20;;;;;;5044308;28;20180;-77
2021/11/13 12:01:42;;;;;;;20.17;10.93;;;28.30;40.20;;;;;;5043316;28;20183;-77
2021/11/13 12:04:19;;;;;;;12.15;10.82;;;28.00;40.60;;;;;;5046347;28;20951;-77
2021/11/13 12:06:47;;;;;;;13.40;11.93;;;27.60;40.60;;;;;;5046230;28;20266;-77
2021/11/13 12:09:13;;;;;;;14.80;12.20;;;27.40;40.20;;;;;;5045084;28;20654;-78
2021/11/13 12:11:39;;;;;;;15.30;12.30;;;27.30;41.30;;;;;;5047927;28;20184;-77
2021/11/13 12:14:29;;;;;;;14.98;12.13;;;26.90;41.20;;;;;;5047670;28;20183;-77
2021/11/13 12:17:20;;;;;;;13.25;10.73;;;26.70;39.80;;;;;;5046444;28;20186;-77
2021/11/13 12:20:31;;;;;;;11.70;9.73;;;26.60;40.90;;;;;;5045690;28;20183;-76
2021/11/13 12:23:08;;;;;;;12.40;11.10;;;26.60;40.00;;;;;;5002951;28;20193;-77
2021/11/13 12:25:37;;;;;;;12.82;10.70;;;26.60;41.30;;;;;;5001976;28;20204;-77
2021/11/13 12:28:21;;;;;;;16.60;11.02;;;26.60;42.10;;;;;;4987201;28;20184;-77
2021/11/13 12:30:52;;;;;;;12.93;11.15;;;26.50;41.50;;;;;;5016355;28;20196;-77
2021/11/13 12:33:24;;;;;;;13.00;10.77;;;26.30;42.90;;;;;;5003749;28;20328;-77
2021/11/13 12:35:54;;;;;;;15.57;11.70;;;26.20;42.50;;;;;;5020312;28;20195;-77
2021/11/13 12:38:41;;;;;;;14.07;10.77;;;26.20;42.10;;;;;;5001681;28;20204;-77
2021/11/13 12:41:18;;;;;;;13.98;11.25;;;26.20;40.60;;;;;;5015921;28;20621;-77
2021/11/13 12:43:56;;;;;;;17.70;11.05;;;26.30;41.40;;;;;;5002309;28;20200;-78
2021/11/13 12:46:35;;;;;;;16.13;10.70;;;26.10;41.90;;;;;;5017890;28;20196;-78